Clifford, Indiana
Current Conditions -  °F | °C
As of 2:45 PM on Friday 19 Dec 2014 (Local Time) from KBAK Reporting Station
Overcast Overcast  
Wind Chill: 28°   Ceiling: 2600
Heat Index: 28°   Visibility: 10mi
Dew Point: 25°   Wind: 0mph
Humidity: 86%   Direction: NA
Pressure: 30.27"   Gusts: NA
Location:  39.28°N, 85.87°W
Report Text: KBAK 191945Z 00000KT 10SM OVC026 M02/M04 A3027
Loading
Personal Weather Stations






























Interactive Weather Map New forecast layout! Learn more

10-Day Weather Forecast

Advertisements
Track Severe Weather on mobile